Time;durP1;ratioP1;P1;durP2;ratioP2;P2;SDS_P1;SDS_P2;PMS_P1;PMS_P2;Temp;Humidity;BMP_temperature;BMP_pressure;BME280_temperature;BME280_humidity;BME280_pressure;Samples;Min_cycle;Max_cycle;Signal;HPM_P1;HPM_P2
2024/01/13 00:01:59;;;;;;;8.25;3.33;;;;;;;2.43;100.00;101599.13;5050721;28;20040;-74
2024/01/13 00:04:24;;;;;;;12.47;2.17;;;;;;;2.49;100.00;101605.84;5049095;28;20124;-74
2024/01/13 00:06:49;;;;;;;9.93;1.60;;;;;;;2.34;100.00;101589.13;5048281;28;20771;-75
2024/01/13 00:09:15;;;;;;;6.57;1.95;;;;;;;2.44;100.00;101615.81;5042651;28;20486;-74
2024/01/13 00:11:40;;;;;;;11.13;2.67;;;;;;;2.46;100.00;101611.31;5061811;28;20025;-74
2024/01/13 00:14:05;;;;;;;7.77;2.27;;;;;;;2.38;100.00;101609.09;5042924;28;20034;-74
2024/01/13 00:16:31;;;;;;;14.03;2.63;;;;;;;2.49;100.00;101625.16;5046849;28;20322;-74
2024/01/13 00:18:56;;;;;;;8.30;2.22;;;;;;;2.44;100.00;101602.63;5071915;23;20704;-76
2024/01/13 00:21:21;;;;;;;7.77;1.90;;;;;;;2.49;100.00;101619.03;5065476;28;20042;-77
2024/01/13 00:23:47;;;;;;;9.85;2.55;;;;;;;2.45;100.00;101612.22;5046659;28;20375;-76
2024/01/13 00:26:12;;;;;;;9.93;1.92;;;;;;;2.48;100.00;101617.31;5035457;28;20403;-76
2024/01/13 00:28:37;;;;;;;7.30;1.55;;;;;;;2.58;100.00;101620.28;5036896;28;20025;-77
2024/01/13 00:31:05;;;;;;;15.00;1.85;;;;;;;2.53;100.00;101607.38;5015796;28;20037;-76
2024/01/13 00:33:30;;;;;;;13.57;1.83;;;;;;;2.49;100.00;101600.56;5008865;28;20729;-76
2024/01/13 00:35:56;;;;;;;14.05;2.40;;;;;;;2.48;100.00;101610.28;5024624;28;20116;-76
2024/01/13 00:38:21;;;;;;;10.88;1.42;;;;;;;2.46;100.00;101611.31;5008993;28;20076;-76
2024/01/13 00:40:46;;;;;;;11.95;1.92;;;;;;;2.53;100.00;101628.47;5028650;28;20052;-77
2024/01/13 00:43:12;;;;;;;12.30;3.30;;;;;;;2.40;100.00;101625.66;5009462;28;20040;-77
2024/01/13 00:45:37;;;;;;;11.68;1.83;;;;;;;2.43;100.00;101617.56;5032026;28;20111;-76
2024/01/13 00:48:03;;;;;;;13.98;3.47;;;;;;;2.46;100.00;101627.97;5039478;28;20037;-76
2024/01/13 00:50:29;;;;;;;11.82;2.10;;;;;;;2.48;100.00;101625.22;5041749;28;20134;-76
2024/01/13 00:52:54;;;;;;;9.18;1.70;;;;;;;2.42;100.00;101631.72;5034272;28;20123;-75
2024/01/13 00:55:19;;;;;;;8.33;1.70;;;;;;;2.29;100.00;101613.13;5031691;28;20045;-76
2024/01/13 00:57:45;;;;;;;11.80;2.43;;;;;;;2.25;100.00;101630.03;5003906;28;20293;-76
2024/01/13 01:00:11;;;;;;;8.73;2.73;;;;;;;2.31;100.00;101639.38;5021165;28;20378;-76
2024/01/13 01:02:36;;;;;;;5.80;1.90;;;;;;;2.29;100.00;101647.38;5043065;28;20305;-77
2024/01/13 01:05:02;;;;;;;9.07;2.17;;;;;;;2.32;100.00;101643.72;5022373;28;20029;-76
2024/01/13 01:07:27;;;;;;;12.60;2.78;;;;;;;2.31;100.00;101639.38;5027456;28;20108;-76
2024/01/13 01:09:52;;;;;;;6.87;1.43;;;;;;;2.36;100.00;101642.59;5024094;28;20041;-76
2024/01/13 01:12:18;;;;;;;7.82;1.60;;;;;;;2.32;100.00;101635.81;5027469;28;20284;-77
2024/01/13 01:14:43;;;;;;;9.32;1.92;;;;;;;2.36;100.00;101645.22;5034558;28;20044;-76
2024/01/13 01:17:09;;;;;;;5.10;0.95;;;;;;;2.35;100.00;101638.28;5020236;28;20519;-76
2024/01/13 01:19:34;;;;;;;3.67;1.70;;;;;;;2.43;100.00;101649.22;5009265;28;20034;-76
2024/01/13 01:21:59;;;;;;;10.70;1.67;;;;;;;2.34;100.00;101641.81;5021265;28;20291;-76
2024/01/13 01:24:25;;;;;;;1.88;0.90;;;;;;;2.25;100.00;101630.03;5033477;28;20038;-76
2024/01/13 01:26:50;;;;;;;2.05;0.70;;;;;;;2.37;100.00;101644.31;5030164;28;20060;-77
2024/01/13 01:29:15;;;;;;;2.87;0.90;;;;;;;2.31;100.00;101628.84;5033165;28;20103;-77
2024/01/13 01:31:41;;;;;;;6.17;2.57;;;;;;;2.38;100.00;101646.00;5022219;28;20627;-77
2024/01/13 01:34:06;;;;;;;2.73;0.87;;;;;;;2.32;100.00;101636.66;5023302;28;20284;-76
2024/01/13 01:36:31;;;;;;;7.38;2.33;;;;;;;2.32;100.00;101627.91;5042450;28;20033;-76
2024/01/13 01:38:57;;;;;;;2.95;0.77;;;;;;;2.32;100.00;101636.66;5018198;28;20026;-77
2024/01/13 01:41:22;;;;;;;5.67;0.80;;;;;;;2.30;100.00;101633.25;5024003;28;20100;-77
2024/01/13 01:43:48;;;;;;;4.28;1.27;;;;;;;2.35;100.00;101634.78;5025291;28;20647;-76
2024/01/13 01:46:14;;;;;;;4.53;0.70;;;;;;;2.38;100.00;101630.19;5040961;28;20038;-76
2024/01/13 01:48:41;;;;;;;3.15;0.82;;;;;;;2.43;100.00;101612.31;5039797;28;20029;-76
2024/01/13 01:51:07;;;;;;;2.67;0.98;;;;;;;2.41;100.00;101602.78;5011400;28;20044;-76
2024/01/13 01:53:34;;;;;;;2.45;0.80;;;;;;;2.41;100.00;101597.53;5029556;28;20064;-77
2024/01/13 01:56:04;;;;;;;4.95;1.00;;;;;;;2.41;100.00;101586.97;5019292;28;20033;-76
2024/01/13 01:58:30;;;;;;;1.83;1.00;;;;;;;2.43;100.00;101585.94;5018074;28;20083;-75
2024/01/13 02:00:55;;;;;;;4.63;1.38;;;;;;;2.37;100.00;101574.94;5035804;28;20033;-76
2024/01/13 02:03:21;;;;;;;4.40;0.90;;;;;;;2.31;100.00;101565.59;5015596;28;20069;-77
2024/01/13 02:05:46;;;;;;;4.95;1.10;;;;;;;2.30;100.00;101564.75;5012944;28;20034;-76
2024/01/13 02:08:13;;;;;;;2.63;1.20;;;;;;;2.31;100.00;101566.44;5044223;28;20037;-77
2024/01/13 02:10:38;;;;;;;3.42;1.52;;;;;;;2.32;100.00;101562.03;5041655;28;20025;-77
2024/01/13 02:13:04;;;;;;;3.58;1.08;;;;;;;2.22;100.00;101559.06;5020056;28;20500;-76
2024/01/13 02:15:29;;;;;;;6.07;1.10;;;;;;;2.24;100.00;101559.81;5038603;28;20041;-76
2024/01/13 02:17:54;;;;;;;8.38;1.00;;;;;;;2.31;100.00;101562.94;5037785;28;20056;-76
2024/01/13 02:20:20;;;;;;;5.53;1.10;;;;;;;2.37;100.00;101567.03;5042449;28;20071;-76
2024/01/13 02:22:45;;;;;;;7.10;1.10;;;;;;;2.32;100.00;101554.97;5028730;28;20044;-76
2024/01/13 02:25:11;;;;;;;7.50;0.98;;;;;;;2.29;100.00;101551.66;5029410;28;20038;-77
2024/01/13 02:27:36;;;;;;;4.35;1.13;;;;;;;2.38;100.00;101559.03;5039840;28;20021;-77
2024/01/13 02:30:02;;;;;;;3.65;1.80;;;;;;;2.31;100.00;101555.03;5021269;28;20045;-76
2024/01/13 02:32:27;;;;;;;3.53;0.95;;;;;;;2.28;100.00;101536.78;5028947;28;20035;-77
2024/01/13 02:34:52;;;;;;;5.70;1.05;;;;;;;2.38;100.00;101540.56;5044881;28;20033;-77
2024/01/13 02:37:18;;;;;;;2.45;0.98;;;;;;;2.32;100.00;101531.25;5045229;28;20095;-77
2024/01/13 02:39:45;;;;;;;4.80;1.07;;;;;;;2.36;100.00;101536.34;5029240;28;20037;-77
2024/01/13 02:42:10;;;;;;;2.90;0.75;;;;;;;2.36;100.00;101526.63;5044194;28;20026;-77
2024/01/13 02:44:35;;;;;;;1.90;0.77;;;;;;;2.26;100.00;101507.88;5023974;28;20104;-77
2024/01/13 02:47:01;;;;;;;6.93;2.05;;;;;;;2.44;100.00;101505.13;5033585;28;20399;-77
2024/01/13 02:49:26;;;;;;;1.23;0.80;;;;;;;2.40;100.00;101501.81;5034764;28;20032;-78
2024/01/13 02:51:51;;;;;;;3.95;0.50;;;;;;;2.31;100.00;101502.34;5017392;28;20128;-76
2024/01/13 02:54:17;;;;;;;1.38;0.75;;;;;;;2.37;100.00;101503.78;5042693;28;20048;-77
2024/01/13 02:56:42;;;;;;;4.13;0.83;;;;;;;2.31;100.00;101500.56;5028541;28;20059;-77
2024/01/13 02:59:07;;;;;;;1.40;0.90;;;;;;;2.37;100.00;101504.63;5043280;28;20291;-78
2024/01/13 03:01:33;;;;;;;0.82;0.60;;;;;;;2.30;100.00;101496.22;5045644;28;20498;-77
2024/01/13 03:03:59;;;;;;;5.18;1.13;;;;;;;2.43;100.00;101501.59;5043899;28;20068;-76
2024/01/13 03:06:25;;;;;;;;;;;;;;;2.43;100.00;101490.22;5027841;28;20383;-77
2024/01/13 03:08:52;;;;;;;3.53;0.80;;;;;;;2.37;100.00;101478.28;5037958;28;20003;-77
2024/01/13 03:11:17;;;;;;;4.90;1.38;;;;;;;2.29;100.00;101469.97;5030917;28;20021;-77
2024/01/13 03:13:44;;;;;;;0.85;0.43;;;;;;;2.30;100.00;101472.50;5028342;28;20029;-77
2024/01/13 03:16:09;;;;;;;1.23;0.63;;;;;;;2.40;100.00;101464.06;5026687;28;20033;-77
2024/01/13 03:18:35;;;;;;;6.03;1.00;;;;;;;2.29;100.00;101460.28;5042482;28;20029;-76
2024/01/13 03:21:02;;;;;;;4.35;0.55;;;;;;;2.26;100.00;101462.25;5026909;28;20056;-76
2024/01/13 03:23:28;;;;;;;1.70;0.50;;;;;;;2.31;100.00;101461.03;5015114;28;20043;-77
2024/01/13 03:25:53;;;;;;;1.30;0.70;;;;;;;2.39;100.00;101465.84;5041251;28;20024;-76
2024/01/13 03:28:19;;;;;;;5.20;1.00;;;;;;;2.40;100.00;101457.00;5010930;28;20087;-77
2024/01/13 03:30:44;;;;;;;1.00;0.60;;;;;;;2.30;100.00;101442.69;5028402;28;20330;-76
2024/01/13 03:33:09;;;;;;;2.38;1.00;;;;;;;2.35;100.00;101445.88;5010731;28;20074;-76
2024/01/13 03:35:35;;;;;;;5.45;0.80;;;;;;;2.20;100.00;101446.78;5010279;28;20041;-77
2024/01/13 03:38:00;;;;;;;4.72;1.33;;;;;;;2.19;100.00;101429.31;5023945;28;20025;-78
2024/01/13 03:40:25;;;;;;;5.63;1.60;;;;;;;2.22;100.00;101445.75;5029676;28;20573;-78
2024/01/13 03:42:51;;;;;;;2.22;0.77;;;;;;;2.24;100.00;101440.41;5044543;28;20025;-77
2024/01/13 03:45:16;;;;;;;2.83;0.90;;;;;;;2.43;100.00;101440.16;5040906;28;20080;-77
2024/01/13 03:47:42;;;;;;;8.45;1.85;;;;;;;2.43;100.00;101434.88;5045571;28;20286;-76
2024/01/13 03:50:08;;;;;;;3.90;0.90;;;;;;;2.31;100.00;101428.56;5026869;28;20427;-77
2024/01/13 03:52:33;;;;;;;2.97;1.17;;;;;;;2.40;100.00;101425.38;5042337;28;20656;-78
2024/01/13 03:54:59;;;;;;;2.67;0.90;;;;;;;2.38;100.00;101423.78;5041894;28;20036;-77
2024/01/13 03:57:25;;;;;;;2.90;0.80;;;;;;;2.37;100.00;101420.28;5041119;28;20037;-77
2024/01/13 03:59:50;;;;;;;12.13;2.05;;;;;;;2.40;100.00;101420.09;5041464;28;20071;-77
2024/01/13 04:02:15;;;;;;;3.15;0.68;;;;;;;2.45;100.00;101415.38;5027012;28;20022;-78
2024/01/13 04:04:41;;;;;;;2.92;0.75;;;;;;;2.44;100.00;101420.78;5027747;28;20032;-78
2024/01/13 04:07:07;;;;;;;8.00;1.15;;;;;;;2.39;100.00;101417.53;5043515;28;20139;-77
2024/01/13 04:09:33;;;;;;;3.78;0.80;;;;;;;2.44;100.00;101418.13;5027715;28;20123;-77
2024/01/13 04:11:58;;;;;;;2.13;0.70;;;;;;;2.35;100.00;101398.44;5037006;28;20190;-77
2024/01/13 04:14:24;;;;;;;2.33;0.88;;;;;;;2.48;100.00;101402.03;5009393;28;20037;-77
2024/01/13 04:16:49;;;;;;;2.53;0.65;;;;;;;2.32;100.00;101393.38;5028491;28;20040;-77
2024/01/13 04:19:15;;;;;;;4.63;1.23;;;;;;;2.21;100.00;101380.00;5032403;28;20037;-76
2024/01/13 04:21:41;;;;;;;;;;;;;;;2.28;100.00;101381.31;5050548;28;20029;-77
2024/01/13 04:24:06;;;;;;;3.85;0.90;;;;;;;2.26;100.00;101372.66;5020200;28;20422;-77
2024/01/13 04:26:32;;;;;;;4.53;0.88;;;;;;;2.27;100.00;101369.06;5026740;28;20029;-76
2024/01/13 04:28:58;;;;;;;5.07;0.73;;;;;;;2.20;100.00;101357.22;5024815;28;20149;-77
2024/01/13 04:31:23;;;;;;;5.57;0.70;;;;;;;2.33;100.00;101355.53;5010464;28;20562;-77
2024/01/13 04:33:48;;;;;;;4.10;0.70;;;;;;;2.42;100.00;101356.75;5010580;28;20567;-77
2024/01/13 04:36:14;;;;;;;1.63;0.80;;;;;;;2.42;100.00;101354.97;5025939;28;20030;-76
2024/01/13 04:38:39;;;;;;;1.98;1.23;;;;;;;2.43;100.00;101338.19;5035699;28;20025;-77
2024/01/13 04:41:05;;;;;;;1.65;0.50;;;;;;;2.38;100.00;101335.00;5038437;28;20040;-76
2024/01/13 04:43:30;;;;;;;4.13;0.93;;;;;;;2.51;100.00;101335.94;5031142;28;20033;-76
2024/01/13 04:45:56;;;;;;;3.47;1.08;;;;;;;2.39;100.00;101317.41;5005722;28;20026;-76
2024/01/13 04:48:22;;;;;;;4.82;1.35;;;;;;;2.45;100.00;101325.78;5041267;28;20419;-76
2024/01/13 04:50:47;;;;;;;10.25;1.40;;;;;;;2.46;100.00;101327.47;5013315;28;20025;-76
2024/01/13 04:53:13;;;;;;;3.05;1.05;;;;;;;2.43;100.00;101321.53;5010952;28;20034;-77
2024/01/13 04:55:38;;;;;;;6.82;1.63;;;;;;;2.48;100.00;101322.97;5024359;28;20023;-77
2024/01/13 04:58:04;;;;;;;8.20;1.98;;;;;;;2.35;100.00;101308.03;5017212;28;20045;-77
2024/01/13 05:00:31;;;;;;;17.33;1.63;;;;;;;2.42;100.00;101307.53;5025570;28;20029;-76
2024/01/13 05:02:57;;;;;;;6.95;1.63;;;;;;;2.44;100.00;101303.00;5017643;28;20038;-77
2024/01/13 05:05:22;;;;;;;14.10;2.40;;;;;;;2.39;100.00;101278.75;5000250;28;20029;-77
2024/01/13 05:07:47;;;;;;;4.38;1.90;;;;;;;2.46;100.00;101290.59;5015333;28;20039;-78
2024/01/13 05:10:14;;;;;;;5.78;1.48;;;;;;;2.49;100.00;101279.00;5018806;28;20034;-76
2024/01/13 05:12:39;;;;;;;4.55;2.67;;;;;;;2.43;100.00;101268.84;5041864;28;20029;-77
2024/01/13 05:15:05;;;;;;;8.57;1.80;;;;;;;2.55;100.00;101281.22;5026190;28;20047;-77
2024/01/13 05:17:30;;;;;;;10.32;2.38;;;;;;;2.57;100.00;101265.31;5043887;28;20029;-76
2024/01/13 05:19:56;;;;;;;6.38;2.10;;;;;;;2.52;100.00;101255.06;5026161;28;20029;-77
2024/01/13 05:22:21;;;;;;;10.97;2.37;;;;;;;2.43;100.00;101232.78;5022014;28;20088;-77
2024/01/13 05:24:46;;;;;;;4.85;1.45;;;;;;;2.54;100.00;101240.84;5033755;28;20083;-77
2024/01/13 05:27:13;;;;;;;11.32;2.40;;;;;;;2.45;100.00;101228.25;5035900;28;20037;-77
2024/01/13 05:29:39;;;;;;;11.55;2.85;;;;;;;2.52;100.00;101226.91;5018335;28;20028;-76
2024/01/13 05:32:04;;;;;;;10.32;2.58;;;;;;;2.51;100.00;101222.59;5027972;28;20127;-77
2024/01/13 05:34:30;;;;;;;15.57;3.28;;;;;;;2.40;100.00;101217.16;5001505;28;20041;-77
2024/01/13 05:36:55;;;;;;;9.50;2.40;;;;;;;2.38;100.00;101213.78;5032174;28;20031;-77
2024/01/13 05:39:20;;;;;;;4.82;1.90;;;;;;;2.45;100.00;101215.06;5012724;28;20116;-77
2024/01/13 05:41:46;;;;;;;8.60;2.23;;;;;;;2.56;100.00;101219.66;5012693;28;20022;-77
2024/01/13 05:44:11;;;;;;;12.52;2.90;;;;;;;2.51;100.00;101214.69;5033852;28;20036;-77
2024/01/13 05:46:37;;;;;;;9.23;1.88;;;;;;;2.53;100.00;101210.19;5006766;28;20049;-77
2024/01/13 05:49:02;;;;;;;20.55;2.33;;;;;;;2.58;100.00;101212.50;5027337;28;20033;-77
2024/01/13 05:51:28;;;;;;;16.40;2.22;;;;;;;2.58;100.00;101193.22;5013920;28;20817;-76
2024/01/13 05:53:54;;;;;;;8.73;2.50;;;;;;;2.48;100.00;101175.38;5036646;28;20528;-76
2024/01/13 05:56:19;;;;;;;7.55;1.83;;;;;;;2.57;100.00;101183.59;5031498;28;20024;-77
2024/01/13 05:58:45;;;;;;;7.85;1.90;;;;;;;2.52;100.00;101174.19;5026736;28;20504;-78
2024/01/13 06:01:10;;;;;;;14.13;4.07;;;;;;;2.59;100.00;101173.81;5008471;28;20113;-78
2024/01/13 06:03:35;;;;;;;18.73;2.88;;;;;;;2.50;100.00;101159.44;5009007;28;20276;-76
2024/01/13 06:06:02;;;;;;;9.45;2.03;;;;;;;2.56;100.00;101153.78;5009496;28;20049;-77
2024/01/13 06:08:28;;;;;;;9.65;1.88;;;;;;;2.58;100.00;101161.59;5013184;28;20095;-76
2024/01/13 06:10:53;;;;;;;9.30;2.28;;;;;;;2.58;100.00;101156.31;5028744;28;20938;-77
2024/01/13 06:13:18;;;;;;;8.27;2.10;;;;;;;2.44;100.00;101136.97;5016951;28;20042;-76
2024/01/13 06:15:44;;;;;;;11.48;3.42;;;;;;;2.47;100.00;101136.75;5016357;28;20344;-75
2024/01/13 06:18:09;;;;;;;13.57;4.07;;;;;;;2.40;100.00;101127.56;5028700;28;20046;-76
2024/01/13 06:20:35;;;;;;;13.00;2.22;;;;;;;2.65;100.00;101147.91;5023042;28;20033;-77
2024/01/13 06:23:00;;;;;;;9.73;1.77;;;;;;;2.63;100.00;101154.22;5020160;28;20033;-78
2024/01/13 06:25:25;;;;;;;12.02;1.73;;;;;;;2.49;100.00;101132.25;5041543;28;20022;-77
2024/01/13 06:27:51;;;;;;;21.08;3.25;;;;;;;2.54;100.00;101135.41;5014444;28;20026;-78
2024/01/13 06:30:16;;;;;;;9.93;2.13;;;;;;;2.61;100.00;101132.38;5014655;28;20108;-77
2024/01/13 06:32:42;;;;;;;12.40;2.33;;;;;;;2.53;100.00;101131.09;5024001;28;20798;-78
2024/01/13 06:35:07;;;;;;;11.82;1.98;;;;;;;2.42;100.00;101115.13;5019363;28;20093;-78
2024/01/13 06:37:33;;;;;;;7.07;2.17;;;;;;;2.55;100.00;101133.63;5015534;28;20034;-78
2024/01/13 06:39:58;;;;;;;9.40;2.20;;;;;;;2.41;100.00;101110.84;5045032;28;20049;-78
2024/01/13 06:42:23;;;;;;;6.68;1.70;;;;;;;2.43;100.00;101130.00;5024542;28;20316;-77
2024/01/13 06:44:49;;;;;;;5.00;2.08;;;;;;;2.46;100.00;101119.28;5000428;28;20042;-77
2024/01/13 06:47:14;;;;;;;11.45;1.50;;;;;;;2.50;100.00;101123.38;5018902;28;20028;-78
2024/01/13 06:49:40;;;;;;;6.32;1.55;;;;;;;2.52;100.00;101110.94;5040243;28;20112;-78
2024/01/13 06:52:08;;;;;;;5.88;2.90;;;;;;;2.61;100.00;101112.13;5024886;28;20029;-77
2024/01/13 06:54:34;;;;;;;10.10;1.95;;;;;;;2.52;100.00;101087.22;5026294;28;20065;-77
2024/01/13 06:56:59;;;;;;;6.25;1.88;;;;;;;2.46;100.00;101085.00;4999009;28;20073;-77
2024/01/13 06:59:24;;;;;;;4.83;1.67;;;;;;;2.56;100.00;101087.03;5014572;28;20113;-77
2024/01/13 07:01:50;;;;;;;9.47;2.03;;;;;;;2.51;100.00;101069.72;5006847;28;20312;-77
2024/01/13 07:04:15;;;;;;;8.48;2.28;;;;;;;2.51;100.00;101072.38;5043099;28;20267;-78
2024/01/13 07:06:41;;;;;;;12.63;2.22;;;;;;;2.56;100.00;101058.88;5039015;28;20038;-78
2024/01/13 07:09:07;;;;;;;11.77;1.67;;;;;;;2.66;100.00;101067.84;5014414;28;20022;-78
2024/01/13 07:11:32;;;;;;;4.60;1.58;;;;;;;2.61;100.00;101058.56;5027270;28;20404;-77
2024/01/13 07:13:57;;;;;;;15.27;2.35;;;;;;;2.68;100.00;101067.75;5040132;28;20099;-78
2024/01/13 07:16:23;;;;;;;2.78;1.50;;;;;;;2.68;100.00;101063.31;5034701;28;20026;-77
2024/01/13 07:18:48;;;;;;;8.77;1.50;;;;;;;2.73;100.00;101048.03;5033392;28;20064;-77
2024/01/13 07:21:14;;;;;;;4.25;1.30;;;;;;;2.85;100.00;101053.41;5022992;28;20299;-77
2024/01/13 07:23:41;;;;;;;4.47;1.27;;;;;;;2.85;100.00;101045.50;5029594;28;20388;-77
2024/01/13 07:26:07;;;;;;;6.47;1.65;;;;;;;2.78;100.00;101031.06;5015447;28;20279;-78
2024/01/13 07:28:32;;;;;;;8.52;1.30;;;;;;;2.85;100.00;101024.41;5031521;28;20584;-77
2024/01/13 07:30:57;;;;;;;9.80;2.00;;;;;;;2.90;100.00;101014.38;5023224;28;20086;-77
2024/01/13 07:33:23;;;;;;;18.58;2.72;;;;;;;2.97;100.00;101013.00;5028472;28;20196;-78
2024/01/13 07:35:48;;;;;;;6.93;1.57;;;;;;;2.88;100.00;100998.69;5028323;28;20155;-78
2024/01/13 07:38:13;;;;;;;4.97;1.93;;;;;;;2.91;100.00;100990.53;5013719;28;20421;-77
2024/01/13 07:40:39;;;;;;;10.40;2.17;;;;;;;2.90;100.00;100988.88;5045822;28;20283;-76
2024/01/13 07:43:04;;;;;;;4.68;1.20;;;;;;;2.87;100.00;100983.78;5025404;28;20282;-76
2024/01/13 07:45:30;;;;;;;10.63;1.70;;;;;;;2.92;100.00;100991.38;5050595;28;20036;-77
2024/01/13 07:47:56;;;;;;;7.40;1.40;;;;;;;2.87;100.00;100981.16;5024727;28;20036;-78
2024/01/13 07:50:21;;;;;;;6.63;1.30;;;;;;;2.98;100.00;100990.13;5034386;28;20310;-78
2024/01/13 07:52:46;;;;;;;6.93;1.42;;;;;;;2.91;100.00;100987.06;5036923;28;20029;-77
2024/01/13 07:55:12;;;;;;;6.77;2.13;;;;;;;2.84;100.00;100976.09;5032762;28;20051;-78
2024/01/13 07:57:37;;;;;;;6.90;1.67;;;;;;;2.88;100.00;100989.91;5043274;28;20773;-76
2024/01/13 08:00:03;;;;;;;6.57;2.45;;;;;;;2.87;100.00;100983.78;5037204;28;20527;-77
2024/01/13 08:02:37;;;;;;;5.80;1.73;;;;;;;2.84;100.00;100989.28;5032248;28;20060;-78
2024/01/13 08:05:03;;;;;;;4.43;2.03;;;;;;;2.90;100.00;100994.16;5017109;28;20838;-78
2024/01/13 08:07:28;;;;;;;9.38;2.67;;;;;;;2.86;100.00;100982.13;5024588;28;20493;-76
2024/01/13 08:09:54;;;;;;;10.65;2.95;;;;;;;2.94;100.00;100985.03;5045046;28;20048;-77
2024/01/13 08:12:19;;;;;;;8.85;2.30;;;;;;;2.99;100.00;100982.09;5032943;28;20041;-77
2024/01/13 08:14:44;;;;;;;6.93;1.53;;;;;;;2.99;100.00;100976.81;5040285;28;20053;-77
2024/01/13 08:17:10;;;;;;;5.27;1.70;;;;;;;2.90;100.00;100980.97;5033507;28;20283;-78
2024/01/13 08:19:37;;;;;;;4.07;1.52;;;;;;;3.00;100.00;100988.19;5016363;28;20033;-77
2024/01/13 08:22:04;;;;;;;5.55;2.25;;;;;;;2.99;100.00;100983.88;5050108;28;20123;-78
2024/01/13 08:24:30;;;;;;;4.90;1.80;;;;;;;2.98;100.00;100990.13;5037802;28;20443;-78
2024/01/13 08:26:56;;;;;;;6.13;2.20;;;;;;;3.04;100.00;100989.69;5042648;28;20025;-78
2024/01/13 08:29:21;;;;;;;3.20;1.73;;;;;;;3.01;100.00;100993.38;5044411;28;20377;-78
2024/01/13 08:31:49;;;;;;;3.95;2.00;;;;;;;3.01;100.00;101000.44;5047412;28;20440;-78
2024/01/13 08:34:14;;;;;;;2.50;1.77;;;;;;;3.08;100.00;100989.34;5054770;28;20130;-78
2024/01/13 08:36:43;;;;;;;5.18;1.90;;;;;;;3.07;100.00;100992.94;5015216;28;20052;-78
2024/01/13 08:39:09;;;;;;;4.97;2.40;;;;;;;3.01;100.00;100979.34;5025370;28;20770;-77
2024/01/13 08:41:35;;;;;;;5.45;2.30;;;;;;;2.94;100.00;100973.66;5023304;28;20029;-77
2024/01/13 08:44:04;;;;;;;3.47;2.80;;;;;;;3.06;100.00;100983.34;5029092;28;20565;-77
2024/01/13 08:46:29;;;;;;;5.50;2.88;;;;;;;3.05;100.00;100986.09;5026016;28;20061;-79
2024/01/13 08:48:55;;;;;;;5.18;2.80;;;;;;;3.12;100.00;100982.09;5029128;28;20399;-77
2024/01/13 08:51:20;;;;;;;7.93;3.05;;;;;;;3.11;100.00;100969.81;5030704;28;20558;-79
2024/01/13 08:53:46;;;;;;;10.65;3.05;;;;;;;3.09;100.00;100969.09;5013686;28;20443;-78
2024/01/13 08:56:13;;;;;;;6.80;3.13;;;;;;;3.18;100.00;100968.44;5030497;28;20088;-78
2024/01/13 08:58:38;;;;;;;8.93;3.05;;;;;;;3.21;100.00;100956.81;5029001;28;20079;-78
2024/01/13 09:01:04;;;;;;;10.82;3.00;;;;;;;3.24;100.00;100962.72;5013785;28;20029;-78
2024/01/13 09:03:29;;;;;;;8.55;2.83;;;;;;;3.16;100.00;100951.88;5013723;28;20435;-78
2024/01/13 09:05:55;;;;;;;6.03;2.80;;;;;;;3.14;100.00;100962.56;5031957;28;20044;-78
2024/01/13 09:08:20;;;;;;;13.13;2.95;;;;;;;3.12;100.00;100968.88;5028761;28;20053;-77
2024/01/13 09:10:46;;;;;;;6.03;2.40;;;;;;;3.25;100.00;100955.66;5009393;28;20033;-78
2024/01/13 09:13:11;;;;;;;7.37;3.03;;;;;;;3.24;100.00;100954.81;5030322;28;20034;-78
2024/01/13 09:15:37;;;;;;;11.77;2.63;;;;;;;3.22;100.00;100942.69;5024576;28;20347;-78
2024/01/13 09:18:03;;;;;;;7.70;3.97;;;;;;;3.20;100.00;100937.50;5033036;28;20029;-78
2024/01/13 09:20:29;;;;;;;6.68;2.22;;;;;;;3.31;100.00;100945.50;5024398;28;20306;-76
2024/01/13 09:22:54;;;;;;;6.90;2.42;;;;;;;3.32;100.00;100941.91;5030521;28;20041;-77
2024/01/13 09:25:20;;;;;;;8.40;2.97;;;;;;;3.32;100.00;100930.50;5013359;28;20143;-77
2024/01/13 09:27:45;;;;;;;8.97;2.40;;;;;;;3.44;100.00;100928.75;5013024;28;20040;-77
2024/01/13 09:30:11;;;;;;;8.77;2.47;;;;;;;3.50;100.00;100917.78;5012681;28;20033;-77
2024/01/13 09:32:36;;;;;;;5.70;3.08;;;;;;;3.51;100.00;100911.53;5005373;28;20284;-78
2024/01/13 09:35:03;;;;;;;8.13;2.50;;;;;;;3.52;100.00;100915.88;5035027;28;20136;-77
2024/01/13 09:37:28;;;;;;;9.82;2.30;;;;;;;3.41;100.00;100895.53;5039453;28;20227;-78
2024/01/13 09:39:54;;;;;;;14.32;2.60;;;;;;;3.48;100.00;100899.41;5007579;28;20044;-77
2024/01/13 09:42:54;;;;;;;6.40;2.57;;;;;;;3.46;100.00;100895.19;5033299;28;20096;-78
2024/01/13 09:45:20;;;;;;;9.35;2.83;;;;;;;3.55;100.00;100895.34;5041401;28;20330;-78
2024/01/13 09:47:46;;;;;;;13.05;3.30;;;;;;;3.50;100.00;100899.28;5027274;28;20031;-79
2024/01/13 09:50:12;;;;;;;20.85;5.85;;;;;;;3.48;100.00;100890.63;5041389;28;20086;-78
2024/01/13 09:52:38;;;;;;;13.55;3.28;;;;;;;3.55;100.00;100886.59;5021758;28;20041;-78
2024/01/13 09:55:07;;;;;;;12.25;3.97;;;;;;;3.46;100.00;100877.53;5026083;28;20041;-78
2024/01/13 09:57:33;;;;;;;9.30;3.10;;;;;;;3.60;100.00;100876.53;5018884;28;20029;-78
2024/01/13 09:59:59;;;;;;;14.05;5.15;;;;;;;3.59;100.00;100867.78;5027982;28;20504;-78
2024/01/13 10:02:25;;;;;;;9.68;3.97;;;;;;;3.61;100.00;100865.03;5026639;28;20091;-78
2024/01/13 10:04:50;;;;;;;11.45;5.13;;;;;;;3.61;100.00;100867.66;5009763;28;20033;-78
2024/01/13 10:07:15;;;;;;;15.23;5.10;;;;;;;3.70;100.00;100866.97;5021399;28;20029;-78
2024/01/13 10:09:42;;;;;;;10.20;4.00;;;;;;;3.74;100.00;100863.13;5031308;28;20090;-78
2024/01/13 10:12:08;;;;;;;12.85;4.25;;;;;;;3.65;100.00;100841.84;5029552;28;20049;-77
2024/01/13 10:14:40;;;;;;;21.33;6.05;;;;;;;3.77;100.00;100846.22;5021772;28;20025;-78
2024/01/13 10:17:05;;;;;;;12.23;4.05;;;;;;;3.74;100.00;100833.25;5014165;28;20411;-78
2024/01/13 10:19:36;;;;;;;13.77;3.90;;;;;;;3.68;100.00;100824.00;5034833;28;20061;-77
2024/01/13 10:22:02;;;;;;;10.80;4.35;;;;;;;3.73;100.00;100810.44;5009045;28;20037;-78
2024/01/13 10:24:28;;;;;;;11.13;3.55;;;;;;;3.78;100.00;100821.50;5031003;28;20075;-77
2024/01/13 10:26:54;;;;;;;9.32;3.75;;;;;;;3.73;100.00;100807.81;5015011;28;20034;-76
2024/01/13 10:29:20;;;;;;;11.18;3.40;;;;;;;3.76;100.00;100792.56;5017959;28;20041;-78
2024/01/13 10:31:48;;;;;;;20.33;4.88;;;;;;;3.59;100.00;100791.19;5030676;28;20140;-77
2024/01/13 10:34:18;;;;;;;12.63;4.07;;;;;;;3.64;100.00;100796.13;5035808;28;20040;-78
2024/01/13 10:36:43;;;;;;;11.95;4.30;;;;;;;3.75;100.00;100804.09;5030650;28;20029;-78
2024/01/13 10:39:08;;;;;;;10.88;3.88;;;;;;;3.84;100.00;100801.69;5029763;28;20063;-76
2024/01/13 10:41:35;;;;;;;10.77;4.13;;;;;;;3.85;100.00;100784.91;5030592;28;20041;-78
2024/01/13 10:44:06;;;;;;;16.05;4.55;;;;;;;3.83;100.00;100781.53;5012902;28;20034;-78
2024/01/13 10:46:36;;;;;;;18.15;3.72;;;;;;;3.76;100.00;100763.50;5031218;28;20044;-78
2024/01/13 10:49:21;;;;;;;14.18;4.72;;;;;;;3.74;100.00;100759.31;5030190;28;20039;-78
2024/01/13 10:51:53;;;;;;;15.90;4.18;;;;;;;3.79;100.00;100770.34;5016794;28;20040;-78
2024/01/13 10:54:19;;;;;;;14.13;4.13;;;;;;;3.92;100.00;100765.81;5046660;28;20128;-78
2024/01/13 10:56:45;;;;;;;8.48;4.28;;;;;;;3.97;100.00;100762.81;5038168;28;20036;-78
2024/01/13 10:59:10;;;;;;;12.95;3.97;;;;;;;3.88;100.00;100751.16;5037681;28;20037;-79
2024/01/13 11:01:38;;;;;;;15.13;4.18;;;;;;;3.99;100.00;100745.03;5029488;28;20116;-78
2024/01/13 11:04:04;;;;;;;10.95;4.45;;;;;;;4.02;100.00;100747.44;5003577;28;20045;-78
2024/01/13 11:06:30;;;;;;;7.95;3.35;;;;;;;4.03;100.00;100730.63;5028641;28;20025;-77
2024/01/13 11:08:56;;;;;;;8.07;4.13;;;;;;;4.06;100.00;100725.09;5022872;28;20026;-77
2024/01/13 11:11:27;;;;;;;11.38;3.38;;;;;;;4.23;100.00;100726.41;5029538;28;20037;-78
2024/01/13 11:14:25;;;;;;;9.60;3.38;;;;;;;4.10;100.00;100713.34;5007530;28;20033;-77
2024/01/13 11:16:52;;;;;;;11.82;4.32;;;;;;;4.19;100.00;100717.91;5047895;28;20051;-76
2024/01/13 11:19:17;;;;;;;9.05;2.83;;;;;;;4.16;100.00;100714.66;5040760;28;20091;-77